createdAt,value
2022-10-26T00:01:40.200Z,57.25
2022-10-26T00:04:09.513Z,53.25
2022-10-26T00:06:38.816Z,54.25
2022-10-26T00:09:08.145Z,53.00
2022-10-26T00:11:37.622Z,55.00
2022-10-26T00:14:07.032Z,53.00
2022-10-26T00:16:36.299Z,50.25
2022-10-26T00:19:05.637Z,51.75
2022-10-26T00:21:35.566Z,58.50
2022-10-26T00:24:04.873Z,53.75
2022-10-26T00:26:34.239Z,51.50
2022-10-26T00:29:03.556Z,51.00
2022-10-26T00:31:32.915Z,51.25
2022-10-26T00:34:02.184Z,51.25
2022-10-26T00:36:31.580Z,50.50
2022-10-26T00:39:00.984Z,48.00
2022-10-26T00:41:34.829Z,48.50
2022-10-26T00:44:24.164Z,49.25
2022-10-26T00:46:53.773Z,49.00
2022-10-26T00:49:23.093Z,52.75
2022-10-26T00:51:53.979Z,49.25
2022-10-26T00:54:23.696Z,51.25
2022-10-26T00:56:54.030Z,51.00
2022-10-26T00:59:25.078Z,49.75
2022-10-26T01:01:55.064Z,50.75
2022-10-26T01:04:24.725Z,49.25
2022-10-26T01:06:54.728Z,53.75
2022-10-26T01:09:24.530Z,54.25
2022-10-26T01:11:53.837Z,53.25
2022-10-26T01:14:23.715Z,58.25
2022-10-26T01:16:56.031Z,62.00
2022-10-26T01:19:25.463Z,55.50
2022-10-26T01:22:17.014Z,69.00
2022-10-26T01:25:04.464Z,71.75
2022-10-26T01:27:35.979Z,73.00
2022-10-26T01:30:14.599Z,71.50
2022-10-26T01:32:51.333Z,69.50
2022-10-26T01:35:27.530Z,68.25
2022-10-26T01:38:00.221Z,67.50
2022-10-26T01:40:41.436Z,67.25
2022-10-26T01:43:13.727Z,64.25
2022-10-26T01:45:45.461Z,62.50
2022-10-26T01:48:16.705Z,63.25
2022-10-26T01:50:47.235Z,54.75
2022-10-26T01:53:17.814Z,59.00
2022-10-26T01:55:49.965Z,56.50
2022-10-26T01:58:37.480Z,59.50
2022-10-26T02:01:25.930Z,59.75
2022-10-26T02:04:00.908Z,57.50
2022-10-26T02:06:48.042Z,58.50
2022-10-26T02:09:20.406Z,55.00
2022-10-26T02:11:53.212Z,54.50
2022-10-26T02:14:22.639Z,56.25
2022-10-26T02:16:51.865Z,52.00
2022-10-26T02:19:26.901Z,59.25
2022-10-26T02:21:57.844Z,54.50
2022-10-26T02:24:29.014Z,54.75
2022-10-26T02:26:59.036Z,59.75
2022-10-26T02:29:30.326Z,58.75
2022-10-26T02:32:00.635Z,59.25
2022-10-26T02:34:30.934Z,57.50
2022-10-26T02:37:02.632Z,55.00
2022-10-26T02:39:33.853Z,58.25
2022-10-26T02:42:05.197Z,55.75
2022-10-26T02:44:39.202Z,56.50
2022-10-26T02:47:08.559Z,53.00
2022-10-26T02:49:38.044Z,51.00
2022-10-26T02:52:18.842Z,52.75
2022-10-26T02:54:55.356Z,54.75
2022-10-26T02:57:33.889Z,55.50
2022-10-26T03:00:03.562Z,54.00
2022-10-26T03:02:33.250Z,60.75
2022-10-26T03:05:11.543Z,64.50
2022-10-26T03:07:41.234Z,61.75
2022-10-26T03:10:10.817Z,60.50
2022-10-26T03:12:40.395Z,53.25
2022-10-26T03:15:09.980Z,57.25
2022-10-26T03:17:39.374Z,51.75
2022-10-26T03:20:09.230Z,54.50
2022-10-26T03:22:38.624Z,54.25
2022-10-26T03:27:39.309Z,52.75
2022-10-26T03:30:09.002Z,51.50
2022-10-26T03:32:38.340Z,52.50
2022-10-26T03:35:08.622Z,52.00
2022-10-26T03:37:37.948Z,53.75
2022-10-26T03:40:07.484Z,55.75
2022-10-26T03:42:39.596Z,57.25
2022-10-26T03:45:10.067Z,51.75
2022-10-26T03:47:45.249Z,55.25
2022-10-26T03:50:15.985Z,51.75
2022-10-26T03:52:45.969Z,50.00
2022-10-26T03:55:15.915Z,52.25
2022-10-26T03:57:46.106Z,51.25
2022-10-26T04:00:17.306Z,49.75
2022-10-26T04:02:53.005Z,50.75
2022-10-26T04:05:22.434Z,51.00
2022-10-26T04:07:59.150Z,50.75
2022-10-26T04:10:29.496Z,50.25
2022-10-26T04:13:00.151Z,51.25
2022-10-26T04:15:29.892Z,49.25
2022-10-26T04:18:03.589Z,49.00
2022-10-26T04:20:35.255Z,49.50
2022-10-26T04:23:05.956Z,47.75
2022-10-26T04:25:35.959Z,49.00
2022-10-26T04:28:06.115Z,47.00
2022-10-26T04:30:36.185Z,47.75
2022-10-26T04:33:06.200Z,48.50
2022-10-26T04:35:35.570Z,49.75
2022-10-26T04:38:07.063Z,46.75
2022-10-26T04:40:36.779Z,47.75
2022-10-26T04:43:06.126Z,44.50
2022-10-26T04:45:35.583Z,46.00
2022-10-26T04:48:04.928Z,44.00
2022-10-26T04:50:34.691Z,48.25
2022-10-26T04:53:06.194Z,47.25
2022-10-26T04:55:36.163Z,48.50
2022-10-26T04:58:05.619Z,45.00
2022-10-26T05:00:35.402Z,46.00
2022-10-26T05:03:05.887Z,45.75
2022-10-26T05:05:36.470Z,44.75
2022-10-26T05:08:06.218Z,44.25
2022-10-26T05:10:36.042Z,43.75
2022-10-26T05:13:05.483Z,43.50
2022-10-26T05:15:34.838Z,43.25
2022-10-26T05:18:06.693Z,44.00
2022-10-26T05:20:37.061Z,45.50
2022-10-26T05:23:08.274Z,43.75
2022-10-26T05:25:38.409Z,45.00
2022-10-26T05:28:10.725Z,43.50
2022-10-26T05:30:40.588Z,41.00
2022-10-26T05:33:10.827Z,41.00
2022-10-26T05:35:40.519Z,40.50
2022-10-26T05:38:15.277Z,42.00
2022-10-26T05:40:51.808Z,43.00
2022-10-26T05:43:21.907Z,41.25
2022-10-26T05:45:54.848Z,42.50
2022-10-26T05:48:24.540Z,42.75
2022-10-26T05:50:53.848Z,42.25
2022-10-26T05:53:23.198Z,41.75
2022-10-26T05:55:52.977Z,41.50
2022-10-26T05:58:22.657Z,41.00
2022-10-26T06:00:52.077Z,43.00
2022-10-26T06:03:21.594Z,44.00
2022-10-26T06:05:58.132Z,47.00
2022-10-26T06:08:28.681Z,46.50
2022-10-26T06:11:00.656Z,47.75
2022-10-26T06:13:30.052Z,45.75
2022-10-26T06:16:05.344Z,46.50
2022-10-26T06:18:59.541Z,49.75
2022-10-26T06:21:43.534Z,48.75
2022-10-26T06:24:18.973Z,47.00
2022-10-26T06:26:55.393Z,47.50
2022-10-26T06:29:33.461Z,46.75
2022-10-26T06:32:03.204Z,43.75
2022-10-26T06:34:36.520Z,46.00
2022-10-26T06:37:06.551Z,46.00
2022-10-26T06:39:37.910Z,46.50
2022-10-26T06:42:08.290Z,46.75
2022-10-26T06:44:37.922Z,45.75
2022-10-26T06:47:10.059Z,45.50
2022-10-26T06:49:42.635Z,45.75
2022-10-26T06:52:15.543Z,45.25
2022-10-26T06:54:55.833Z,43.75
2022-10-26T06:57:27.134Z,45.75
2022-10-26T06:59:57.297Z,43.00
2022-10-26T07:02:26.796Z,44.00
2022-10-26T07:04:56.536Z,45.75
2022-10-26T07:07:27.528Z,45.25
2022-10-26T07:09:57.329Z,46.25
2022-10-26T07:12:30.759Z,42.75
2022-10-26T07:15:02.888Z,43.50
2022-10-26T07:17:32.333Z,43.75
2022-10-26T07:20:01.621Z,44.25
2022-10-26T07:22:30.968Z,44.25
2022-10-26T07:25:02.908Z,43.50
2022-10-26T07:27:32.770Z,44.75
2022-10-26T07:30:02.070Z,44.50
2022-10-26T07:32:31.781Z,45.75
2022-10-26T07:35:01.148Z,43.50
2022-10-26T07:37:30.524Z,44.00
2022-10-26T07:40:05.566Z,43.25
2022-10-26T07:42:37.745Z,44.75
2022-10-26T07:45:07.712Z,42.75
2022-10-26T07:47:36.959Z,45.50
2022-10-26T07:50:07.229Z,44.75
2022-10-26T07:52:38.300Z,42.75
2022-10-26T07:55:08.001Z,44.25
2022-10-26T07:57:37.254Z,43.25
2022-10-26T08:00:08.120Z,40.75
2022-10-26T08:02:37.954Z,45.75
2022-10-26T08:05:07.836Z,47.00
2022-10-26T08:07:42.036Z,49.75
2022-10-26T08:10:11.702Z,52.25
2022-10-26T08:12:41.147Z,50.25
2022-10-26T08:15:11.201Z,52.50
2022-10-26T08:17:40.542Z,54.50
2022-10-26T08:20:10.087Z,48.00
2022-10-26T08:22:39.369Z,47.75
2022-10-26T08:25:08.709Z,49.00
2022-10-26T08:27:38.126Z,49.00
2022-10-26T08:30:07.655Z,49.00
2022-10-26T08:32:37.165Z,45.00
2022-10-26T08:35:06.581Z,46.50
2022-10-26T08:37:36.122Z,43.25
2022-10-26T08:40:06.423Z,45.25
2022-10-26T08:42:39.717Z,45.75
2022-10-26T08:45:37.063Z,52.00
2022-10-26T08:48:38.541Z,53.25
2022-10-26T08:51:10.956Z,49.50
2022-10-26T08:53:45.500Z,48.75
2022-10-26T08:56:37.846Z,50.00
2022-10-26T08:59:19.940Z,48.75
2022-10-26T09:01:49.271Z,47.75
2022-10-26T09:04:18.664Z,47.00
2022-10-26T09:07:06.508Z,47.75
2022-10-26T09:09:46.191Z,45.75
2022-10-26T09:12:28.378Z,46.25
2022-10-26T09:15:06.642Z,45.50
2022-10-26T09:17:54.101Z,47.50
2022-10-26T09:20:28.099Z,44.75
2022-10-26T09:23:10.450Z,46.00
2022-10-26T09:25:43.567Z,44.75
2022-10-26T09:28:19.132Z,42.25
2022-10-26T09:30:49.677Z,44.00
2022-10-26T09:33:19.069Z,42.75
2022-10-26T09:35:51.349Z,42.75
2022-10-26T09:38:30.208Z,44.25
2022-10-26T09:41:17.816Z,46.00
2022-10-26T09:44:05.920Z,41.00
2022-10-26T09:46:42.291Z,44.25
2022-10-26T09:49:12.953Z,41.75
2022-10-26T09:51:44.345Z,42.25
2022-10-26T09:54:18.522Z,42.00
2022-10-26T09:57:01.171Z,42.50
2022-10-26T09:59:32.740Z,42.50
2022-10-26T10:02:02.372Z,43.00
2022-10-26T10:04:35.047Z,43.00
2022-10-26T10:07:04.699Z,42.75
2022-10-26T10:09:34.055Z,48.00
2022-10-26T10:12:05.029Z,47.50
2022-10-26T10:14:42.019Z,48.75
2022-10-26T10:17:32.242Z,48.00
2022-10-26T10:20:13.708Z,46.25
2022-10-26T10:22:54.804Z,50.00
2022-10-26T10:25:25.949Z,44.50
2022-10-26T10:27:55.964Z,49.00
2022-10-26T10:30:29.615Z,47.75
2022-10-26T10:33:09.496Z,47.50
2022-10-26T10:35:40.739Z,47.75
2022-10-26T10:38:17.492Z,45.25
2022-10-26T10:40:54.945Z,47.75
2022-10-26T10:43:24.887Z,48.00
2022-10-26T10:45:59.548Z,44.75
2022-10-26T10:48:31.748Z,48.00
2022-10-26T10:51:04.975Z,45.75
2022-10-26T10:53:34.894Z,47.50
2022-10-26T10:56:22.612Z,45.75
2022-10-26T10:58:55.299Z,46.00
2022-10-26T11:01:26.861Z,47.00
2022-10-26T11:04:05.824Z,46.25
2022-10-26T11:06:38.590Z,45.50
2022-10-26T11:09:17.217Z,51.50
2022-10-26T11:11:53.078Z,52.75
2022-10-26T11:14:29.981Z,50.25
2022-10-26T11:17:05.282Z,49.00
2022-10-26T11:19:35.056Z,50.25
2022-10-26T11:22:05.949Z,53.75
2022-10-26T11:24:44.020Z,64.00
2022-10-26T11:27:19.096Z,60.25
2022-10-26T11:29:54.396Z,63.75
2022-10-26T11:32:32.338Z,56.50
2022-10-26T11:35:19.834Z,54.50
2022-10-26T11:37:52.135Z,61.25
2022-10-26T11:40:28.814Z,69.25
2022-10-26T11:43:07.804Z,62.25
2022-10-26T11:45:41.019Z,65.00
2022-10-26T11:48:16.945Z,64.50
2022-10-26T11:50:53.010Z,63.75
2022-10-26T11:53:34.330Z,67.50
2022-10-26T11:56:05.454Z,71.50
2022-10-26T11:58:35.565Z,69.00
2022-10-26T12:01:12.412Z,64.75
2022-10-26T12:03:48.181Z,65.75
2022-10-26T12:06:20.976Z,57.25
2022-10-26T12:09:01.333Z,52.75
2022-10-26T12:11:40.629Z,56.75
2022-10-26T12:14:30.255Z,49.00
2022-10-26T12:17:02.906Z,51.00
2022-10-26T12:19:50.913Z,53.00
2022-10-26T12:22:22.337Z,51.00
2022-10-26T12:25:14.691Z,49.25
2022-10-26T12:27:45.010Z,49.50
2022-10-26T12:30:14.367Z,48.00
2022-10-26T12:32:44.011Z,48.00
2022-10-26T12:35:33.257Z,48.50
2022-10-26T12:38:03.469Z,51.00
2022-10-26T12:40:33.876Z,49.50
2022-10-26T12:43:15.524Z,49.25
2022-10-26T12:45:45.859Z,48.00
2022-10-26T12:48:27.645Z,47.00
2022-10-26T12:51:39.651Z,44.75
2022-10-26T12:54:21.100Z,45.75
2022-10-26T12:57:09.810Z,45.75
2022-10-26T12:59:47.527Z,44.00
2022-10-26T13:02:31.775Z,46.00
2022-10-26T13:05:13.282Z,44.25
2022-10-26T13:07:43.341Z,45.75
2022-10-26T13:10:15.467Z,42.50
2022-10-26T13:12:44.771Z,43.75
2022-10-26T13:15:37.007Z,43.00
2022-10-26T13:18:16.164Z,41.25
2022-10-26T13:21:05.570Z,40.00
2022-10-26T13:23:36.296Z,39.50
2022-10-26T13:26:08.527Z,39.50
2022-10-26T13:28:40.871Z,40.00
2022-10-26T13:31:13.115Z,40.25
2022-10-26T13:33:43.938Z,39.50
2022-10-26T13:36:39.848Z,39.75
2022-10-26T13:39:16.302Z,37.00
2022-10-26T13:41:47.242Z,38.00
2022-10-26T13:44:28.886Z,38.75
2022-10-26T13:47:11.336Z,40.00
2022-10-26T13:49:45.983Z,36.75
2022-10-26T13:52:28.429Z,38.75
2022-10-26T13:55:05.943Z,37.00
2022-10-26T13:57:41.476Z,37.50
2022-10-26T14:00:17.805Z,35.75
2022-10-26T14:02:47.453Z,35.75
2022-10-26T14:05:20.726Z,32.75
2022-10-26T14:07:52.626Z,33.75
2022-10-26T14:10:31.824Z,29.75
2022-10-26T14:13:02.524Z,34.75
2022-10-26T14:15:34.246Z,33.00
2022-10-26T14:18:05.728Z,34.50
2022-10-26T14:20:35.659Z,32.50
2022-10-26T14:23:05.321Z,32.25
2022-10-26T14:25:41.948Z,32.50
2022-10-26T14:28:26.581Z,35.00
2022-10-26T14:30:56.642Z,31.75
2022-10-26T14:33:30.227Z,30.50
2022-10-26T14:36:00.571Z,33.75
2022-10-26T14:38:31.597Z,31.50
2022-10-26T14:41:01.784Z,30.25
2022-10-26T14:43:33.237Z,32.25
2022-10-26T14:46:03.489Z,31.75
2022-10-26T14:48:34.412Z,29.75
2022-10-26T14:51:04.598Z,30.25
2022-10-26T14:53:36.757Z,31.00
2022-10-26T14:56:08.731Z,28.25
2022-10-26T14:58:38.808Z,24.75
2022-10-26T15:01:17.862Z,25.25
2022-10-26T15:03:50.626Z,28.25
2022-10-26T15:06:29.831Z,28.75
2022-10-26T15:09:01.109Z,28.25
2022-10-26T15:11:31.864Z,30.50
2022-10-26T15:14:02.420Z,29.75
2022-10-26T15:16:35.677Z,25.50
2022-10-26T15:19:09.414Z,22.25
2022-10-26T15:21:44.374Z,25.00
2022-10-26T15:24:17.840Z,21.75
2022-10-26T15:26:47.748Z,20.25
2022-10-26T15:29:35.398Z,22.25
2022-10-26T15:32:07.441Z,21.25
2022-10-26T15:34:37.542Z,22.75
2022-10-26T15:37:07.219Z,23.25
2022-10-26T15:39:36.998Z,20.75
2022-10-26T15:42:11.184Z,18.50
2022-10-26T15:44:40.926Z,20.50
2022-10-26T15:47:18.471Z,24.75
2022-10-26T15:49:48.572Z,20.75
2022-10-26T15:52:18.254Z,22.00
2022-10-26T15:54:48.096Z,16.00
2022-10-26T15:57:20.693Z,17.25
2022-10-26T15:59:51.874Z,21.25
2022-10-26T16:02:21.464Z,19.25
2022-10-26T16:04:51.069Z,18.75
2022-10-26T16:07:22.086Z,18.25
2022-10-26T16:09:51.457Z,18.50
2022-10-26T16:12:21.127Z,18.00
2022-10-26T16:15:04.635Z,14.00
2022-10-26T16:17:35.365Z,20.25
2022-10-26T16:20:08.867Z,18.00
2022-10-26T16:22:39.223Z,17.25
2022-10-26T16:25:08.936Z,15.00
2022-10-26T16:27:38.310Z,14.50
2022-10-26T16:30:07.846Z,15.75
2022-10-26T16:32:37.389Z,15.50
2022-10-26T16:35:06.899Z,13.75
2022-10-26T16:37:36.217Z,12.50
2022-10-26T16:40:06.094Z,14.00
2022-10-26T16:42:35.354Z,13.75
2022-10-26T16:45:04.826Z,9.75
2022-10-26T16:47:38.231Z,12.75
2022-10-26T16:50:14.590Z,13.25
2022-10-26T16:52:43.921Z,12.75
2022-10-26T16:55:13.296Z,12.25
2022-10-26T16:57:42.580Z,12.50
2022-10-26T17:00:12.120Z,13.75
2022-10-26T17:02:41.561Z,12.00
2022-10-26T17:05:11.293Z,13.25
2022-10-26T17:07:40.541Z,11.00
2022-10-26T17:10:09.953Z,9.75
2022-10-26T17:12:39.409Z,9.00
2022-10-26T17:15:08.990Z,14.00
2022-10-26T17:17:38.330Z,10.75
2022-10-26T17:20:07.986Z,11.50
2022-10-26T17:22:37.299Z,13.00
2022-10-26T17:25:06.869Z,8.50
2022-10-26T17:27:36.187Z,9.00
2022-10-26T17:30:05.543Z,8.25
2022-10-26T17:32:34.918Z,10.50
2022-10-26T17:35:04.236Z,8.50
2022-10-26T17:37:33.508Z,10.25
2022-10-26T17:40:02.817Z,7.50
2022-10-26T17:42:32.134Z,9.25
2022-10-26T17:45:01.438Z,9.25
2022-10-26T17:47:30.752Z,12.50
2022-10-26T17:49:59.935Z,9.50
2022-10-26T17:52:29.288Z,9.75
2022-10-26T17:55:00.502Z,10.25
2022-10-26T17:57:33.615Z,7.00
2022-10-26T18:00:03.031Z,7.50
2022-10-26T18:02:41.447Z,9.00
2022-10-26T18:05:11.405Z,6.75
2022-10-26T18:07:40.741Z,10.00
2022-10-26T18:10:32.879Z,7.75
2022-10-26T18:12:59.943Z,7.00
2022-10-26T18:15:29.286Z,6.00
2022-10-26T18:18:00.783Z,8.00
2022-10-26T18:20:30.381Z,6.50
2022-10-26T18:22:59.825Z,6.00
2022-10-26T18:25:29.591Z,6.50
2022-10-26T18:27:59.179Z,5.50
2022-10-26T18:30:28.589Z,6.75
2022-10-26T18:32:58.066Z,7.00
2022-10-26T18:35:27.393Z,7.75
2022-10-26T18:37:56.757Z,5.25
2022-10-26T18:40:26.039Z,6.00
2022-10-26T18:42:55.266Z,5.50
2022-10-26T18:45:24.556Z,4.75
2022-10-26T18:47:54.114Z,5.00
2022-10-26T18:50:23.570Z,3.75
2022-10-26T18:52:52.865Z,4.75
2022-10-26T18:55:22.177Z,7.00
2022-10-26T18:57:51.652Z,4.25
2022-10-26T19:00:21.441Z,5.75
2022-10-26T19:02:52.475Z,6.75
2022-10-26T19:05:22.038Z,4.50
2022-10-26T19:07:51.332Z,3.25
2022-10-26T19:10:20.627Z,5.25
2022-10-26T19:12:50.172Z,3.25
2022-10-26T19:15:19.657Z,7.25
2022-10-26T19:17:48.978Z,4.25
2022-10-26T19:20:18.754Z,4.50
2022-10-26T19:22:48.210Z,4.75
2022-10-26T19:25:17.817Z,5.25
2022-10-26T19:27:47.586Z,4.00
2022-10-26T19:30:18.047Z,4.00
2022-10-26T19:32:47.386Z,3.75
2022-10-26T19:35:16.731Z,5.25
2022-10-26T19:37:46.027Z,5.50
2022-10-26T19:40:15.404Z,4.50
2022-10-26T19:42:44.627Z,5.75
2022-10-26T19:45:13.863Z,3.00
2022-10-26T19:47:43.139Z,4.25
2022-10-26T19:50:12.506Z,3.25
2022-10-26T19:52:42.551Z,3.75
2022-10-26T19:55:11.930Z,3.00
2022-10-26T19:57:41.264Z,3.00
2022-10-26T20:00:10.949Z,3.25
2022-10-26T20:02:43.217Z,3.00
2022-10-26T20:05:12.465Z,3.75
2022-10-26T20:07:41.848Z,4.00
2022-10-26T20:10:11.182Z,3.50
2022-10-26T20:12:40.435Z,3.00
2022-10-26T20:15:10.038Z,3.00
2022-10-26T20:17:39.450Z,2.75
2022-10-26T20:20:09.079Z,3.75
2022-10-26T20:22:38.439Z,3.00
2022-10-26T20:25:07.891Z,4.00
2022-10-26T20:27:38.798Z,2.00
2022-10-26T20:30:08.352Z,2.75
2022-10-26T20:32:37.713Z,3.00
2022-10-26T20:35:07.207Z,1.25
2022-10-26T20:37:36.962Z,3.50
2022-10-26T20:40:06.420Z,3.00
2022-10-26T20:42:36.002Z,2.75
2022-10-26T20:45:09.924Z,2.25
2022-10-26T20:47:39.758Z,2.25
2022-10-26T20:50:09.718Z,1.75
2022-10-26T20:52:52.920Z,2.50
2022-10-26T20:55:22.690Z,2.00
2022-10-26T20:57:58.237Z,2.00
2022-10-26T21:00:27.773Z,2.00
2022-10-26T21:02:57.075Z,2.00
2022-10-26T21:05:30.221Z,3.00
2022-10-26T21:08:01.948Z,3.25
2022-10-26T21:10:31.307Z,2.00
2022-10-26T21:13:00.582Z,3.50
2022-10-26T21:15:29.871Z,2.25
2022-10-26T21:17:59.112Z,1.00
2022-10-26T21:20:28.439Z,3.00
2022-10-26T21:22:57.839Z,3.25
2022-10-26T21:25:27.122Z,2.00
2022-10-26T21:27:59.528Z,2.25
2022-10-26T21:30:28.819Z,2.00
2022-10-26T21:33:01.467Z,2.00
2022-10-26T21:35:30.946Z,1.00
2022-10-26T21:38:00.295Z,2.75
2022-10-26T21:40:29.563Z,1.00
2022-10-26T21:42:58.842Z,3.00
2022-10-26T21:45:28.241Z,2.75
2022-10-26T21:47:57.567Z,3.00
2022-10-26T21:50:26.918Z,1.00
2022-10-26T21:52:56.280Z,2.00
2022-10-26T21:55:25.641Z,1.00
2022-10-26T21:57:55.272Z,1.75
2022-10-26T22:00:24.736Z,2.50
2022-10-26T22:02:54.094Z,2.00
2022-10-26T22:05:23.444Z,1.00
2022-10-26T22:07:53.035Z,1.50
2022-10-26T22:10:22.483Z,2.00
2022-10-26T22:12:51.760Z,1.25
2022-10-26T22:15:21.093Z,2.00
2022-10-26T22:17:50.579Z,2.00
2022-10-26T22:20:20.032Z,2.00
2022-10-26T22:22:49.292Z,3.00
2022-10-26T22:25:18.770Z,3.00
2022-10-26T22:27:49.281Z,1.75
2022-10-26T22:30:19.295Z,3.00
2022-10-26T22:32:48.874Z,3.00
2022-10-26T22:35:29.033Z,3.00
2022-10-26T22:37:59.433Z,4.50
2022-10-26T22:40:28.893Z,3.00
2022-10-26T22:42:58.378Z,4.50
2022-10-26T22:45:27.656Z,3.75
2022-10-26T22:47:57.066Z,5.25
2022-10-26T22:50:26.424Z,4.00
2022-10-26T22:52:55.682Z,3.00
2022-10-26T22:55:24.917Z,5.75
2022-10-26T22:57:55.444Z,5.50
2022-10-26T23:00:25.197Z,5.00
2022-10-26T23:02:54.417Z,3.50
2022-10-26T23:05:23.695Z,5.50
2022-10-26T23:07:53.171Z,5.00
2022-10-26T23:10:22.614Z,4.00
2022-10-26T23:12:52.174Z,4.25
2022-10-26T23:15:21.467Z,5.00
2022-10-26T23:17:50.928Z,3.75
2022-10-26T23:20:20.359Z,4.25
2022-10-26T23:22:50.038Z,4.25
2022-10-26T23:25:19.504Z,5.00
2022-10-26T23:27:48.819Z,3.00
2022-10-26T23:30:18.364Z,6.75
2022-10-26T23:32:47.677Z,7.25
2022-10-26T23:35:17.116Z,9.00
2022-10-26T23:37:46.454Z,8.00
2022-10-26T23:40:15.728Z,8.25
2022-10-26T23:42:44.937Z,8.00
2022-10-26T23:45:14.357Z,12.75
2022-10-26T23:47:43.645Z,9.75
2022-10-26T23:50:12.934Z,6.75
2022-10-26T23:52:42.256Z,10.00
2022-10-26T23:55:11.656Z,8.25
2022-10-26T23:57:41.206Z,9.00
